Time;durP1;ratioP1;P1;durP2;ratioP2;P2;SDS_P1;SDS_P2;PMS_P1;PMS_P2;Temp;Humidity;BMP_temperature;BMP_pressure;BME280_temperature;BME280_humidity;BME280_pressure;Samples;Min_cycle;Max_cycle;Signal;HPM_P1;HPM_P2
2023/01/03 00:01:51;;;;;;;13.88;8.90;;;7.80;99.90;;;;;;5090807;28;20382;-74
2023/01/03 00:04:17;;;;;;;16.65;8.65;;;7.90;99.90;;;;;;5091279;28;20401;-73
2023/01/03 00:06:48;;;;;;;14.40;8.80;;;7.90;99.90;;;;;;5091602;28;20439;-74
2023/01/03 00:09:17;;;;;;;18.52;8.70;;;8.00;99.90;;;;;;5074132;28;20382;-74
2023/01/03 00:14:36;;;;;;;19.00;7.95;;;8.10;99.90;;;;;;5103489;28;20385;-74
2023/01/03 00:17:03;;;;;;;14.67;7.90;;;8.30;99.90;;;;;;5096419;28;20385;-74
2023/01/03 00:19:32;;;;;;;17.40;8.27;;;8.30;99.90;;;;;;5090839;28;20821;-74
2023/01/03 00:21:58;;;;;;;17.35;7.60;;;8.30;99.80;;;;;;5091112;28;20434;-74
2023/01/03 00:24:23;;;;;;;9.68;7.00;;;8.40;98.00;;;;;;5090605;28;20402;-73
2023/01/03 00:26:50;;;;;;;13.88;7.60;;;8.30;98.10;;;;;;5090602;28;20378;-73
2023/01/03 00:29:16;;;;;;;14.10;7.53;;;8.20;97.50;;;;;;5090877;28;20374;-72
2023/01/03 00:31:42;;;;;;;12.60;7.05;;;8.10;98.50;;;;;;5090594;28;20470;-73
2023/01/03 00:34:08;;;;;;;17.10;7.30;;;8.00;99.90;;;;;;5091103;28;20759;-74
2023/01/03 00:36:36;;;;;;;12.82;7.45;;;7.90;99.90;;;;;;5090566;28;20378;-75
2023/01/03 00:39:02;;;;;;;14.77;7.70;;;7.70;99.90;;;;;;5072612;28;20393;-73
2023/01/03 00:41:29;;;;;;;15.32;7.68;;;7.60;99.90;;;;;;5090777;28;20754;-75
2023/01/03 00:43:55;;;;;;;13.93;7.93;;;7.50;99.90;;;;;;5090779;28;20413;-74
2023/01/03 00:46:22;;;;;;;17.53;7.70;;;7.40;99.90;;;;;;5090558;28;20427;-74
2023/01/03 00:48:47;;;;;;;17.10;7.20;;;7.40;99.90;;;;;;5090585;28;20378;-73
2023/01/03 00:51:17;;;;;;;19.23;7.70;;;7.40;99.90;;;;;;5090703;28;20378;-76
2023/01/03 00:53:45;;;;;;;14.55;7.40;;;7.40;99.90;;;;;;5073270;28;20386;-73
2023/01/03 00:56:14;;;;;;;16.27;7.25;;;7.40;99.90;;;;;;5095623;28;20382;-74
2023/01/03 00:58:40;;;;;;;12.10;6.70;;;7.30;99.90;;;;;;5097093;28;20481;-73
2023/01/03 01:01:08;;;;;;;15.40;7.25;;;7.30;99.90;;;;;;5095172;28;20925;-75
2023/01/03 01:03:35;;;;;;;15.88;7.32;;;7.20;99.90;;;;;;5094305;28;20438;-74
2023/01/03 01:06:22;;;;;;;21.10;7.20;;;7.30;99.90;;;;;;5094088;28;20442;-76
2023/01/03 01:08:49;;;;;;;18.67;7.70;;;7.30;99.90;;;;;;5093959;28;20401;-73
2023/01/03 01:11:16;;;;;;;15.85;7.10;;;7.10;99.90;;;;;;5075652;28;20492;-74
2023/01/03 01:13:43;;;;;;;16.80;7.30;;;7.00;99.90;;;;;;5093887;28;20413;-73
2023/01/03 01:16:12;;;;;;;12.98;7.35;;;6.90;99.90;;;;;;5094080;28;20765;-73
2023/01/03 01:18:39;;;;;;;18.35;8.00;;;6.90;99.90;;;;;;5075510;28;20401;-74
2023/01/03 01:21:11;;;;;;;15.15;6.85;;;6.90;99.90;;;;;;5093901;28;20386;-74
2023/01/03 01:23:38;;;;;;;15.90;7.65;;;6.70;99.90;;;;;;5094256;28;20944;-74
2023/01/03 01:26:06;;;;;;;14.02;7.25;;;6.80;99.90;;;;;;5078638;28;20412;-75
2023/01/03 01:28:32;;;;;;;17.55;7.85;;;6.70;99.90;;;;;;5095268;28;20728;-75
2023/01/03 01:30:59;;;;;;;13.00;7.45;;;6.70;99.90;;;;;;5093371;28;20958;-74
2023/01/03 01:33:25;;;;;;;10.88;7.55;;;6.60;99.90;;;;;;5093564;28;20386;-74
2023/01/03 01:35:50;;;;;;;15.68;8.07;;;6.40;99.90;;;;;;5075128;28;20389;-75
2023/01/03 01:38:16;;;;;;;15.25;8.27;;;6.50;99.90;;;;;;5093355;28;20728;-74
2023/01/03 01:40:41;;;;;;;14.82;8.00;;;6.50;99.90;;;;;;5093485;28;20417;-76
2023/01/03 01:46:11;;;;;;;17.13;7.60;;;6.70;99.90;;;;;;5093798;28;20730;-74
2023/01/03 01:48:38;;;;;;;13.63;6.82;;;6.70;99.90;;;;;;5092903;28;20884;-73
2023/01/03 01:51:05;;;;;;;17.90;7.10;;;6.70;99.90;;;;;;5074775;28;20442;-75
2023/01/03 01:53:34;;;;;;;13.40;6.78;;;6.70;99.90;;;;;;5093008;28;20476;-75
2023/01/03 01:56:20;;;;;;;15.30;6.80;;;6.70;99.90;;;;;;5092974;28;20409;-73
2023/01/03 01:58:49;;;;;;;16.83;6.55;;;6.60;99.90;;;;;;5092935;28;20389;-73
2023/01/03 02:01:17;;;;;;;14.37;6.80;;;6.60;99.90;;;;;;5092586;28;20477;-73
2023/01/03 02:03:46;;;;;;;10.77;6.10;;;6.50;99.90;;;;;;5094529;28;20409;-74
2023/01/03 02:06:15;;;;;;;10.40;6.50;;;6.60;99.90;;;;;;5102452;28;20378;-73
2023/01/03 02:08:40;;;;;;;15.82;7.00;;;6.50;99.90;;;;;;5098412;28;20378;-74
2023/01/03 02:11:43;;;;;;;11.65;6.70;;;6.40;99.90;;;;;;5095449;28;20386;-75
2023/01/03 02:14:21;;;;;;;16.25;6.93;;;6.50;99.90;;;;;;5104951;28;20408;-73
2023/01/03 02:17:11;;;;;;;16.80;7.10;;;6.40;99.90;;;;;;5096467;28;20382;-74
2023/01/03 02:19:58;;;;;;;12.80;7.10;;;6.50;99.90;;;;;;5092503;28;20378;-74
2023/01/03 02:22:58;;;;;;;13.63;6.93;;;6.40;99.90;;;;;;5092508;28;20408;-75
2023/01/03 02:25:55;;;;;;;14.65;7.30;;;6.40;99.90;;;;;;5092468;28;20402;-75
2023/01/03 02:28:23;;;;;;;15.47;7.13;;;6.40;99.90;;;;;;5092438;28;20381;-75
2023/01/03 02:31:12;;;;;;;13.63;7.80;;;6.20;99.90;;;;;;5092259;28;20746;-75
2023/01/03 02:33:46;;;;;;;15.48;8.15;;;6.10;99.90;;;;;;5092346;28;20386;-75
2023/01/03 02:36:26;;;;;;;18.27;8.90;;;6.00;99.90;;;;;;5092024;28;20393;-74
2023/01/03 02:39:08;;;;;;;18.52;8.65;;;6.10;99.90;;;;;;5091790;28;20443;-74
2023/01/03 02:42:56;;;;;;;18.15;9.30;;;6.10;99.90;;;;;;5091803;28;20805;-74
2023/01/03 02:44:43;;;;;;;21.00;9.07;;;6.10;99.90;;;;;;5091549;28;20406;-73
2023/01/03 02:47:14;;;;;;;17.02;8.60;;;6.10;99.90;;;;;;5092181;28;20775;-76
2023/01/03 02:49:47;;;;;;;16.25;9.15;;;6.20;99.90;;;;;;5091586;28;20374;-75
2023/01/03 02:52:18;;;;;;;15.18;8.98;;;6.10;99.90;;;;;;5091551;28;20381;-74
2023/01/03 02:54:56;;;;;;;21.48;8.80;;;6.10;99.90;;;;;;5091328;28;20746;-74
2023/01/03 02:57:40;;;;;;;14.77;8.63;;;6.10;99.90;;;;;;5091634;28;20386;-74
2023/01/03 03:00:15;;;;;;;16.43;9.27;;;6.10;99.90;;;;;;5091542;28;20393;-74
2023/01/03 03:02:50;;;;;;;18.42;9.57;;;6.10;99.90;;;;;;5072996;28;20420;-73
2023/01/03 03:05:21;;;;;;;18.90;9.10;;;6.10;99.90;;;;;;5091457;28;20790;-74
2023/01/03 03:07:47;;;;;;;15.85;9.18;;;6.10;99.90;;;;;;5073173;28;20927;-73
2023/01/03 03:13:18;;;;;;;19.10;8.90;;;6.00;99.90;;;;;;5091524;28;20520;-73
2023/01/03 03:16:13;;;;;;;16.88;9.10;;;5.90;99.90;;;;;;5091459;28;20396;-74
2023/01/03 03:18:42;;;;;;;16.45;8.90;;;5.80;99.90;;;;;;5102174;28;20394;-77
2023/01/03 03:28:33;;;;;;;20.10;9.45;;;5.80;99.90;;;;;;5077745;28;20639;-76
2023/01/03 03:29:50;;;;;;;19.77;8.75;;;5.80;99.90;;;;;;5101357;28;20720;-75
2023/01/03 03:32:16;;;;;;;19.58;9.02;;;5.80;99.90;;;;;;5107081;28;20405;-76
2023/01/03 03:34:44;;;;;;;21.80;9.63;;;5.70;99.90;;;;;;5083484;28;20386;-76
2023/01/03 03:37:15;;;;;;;15.83;9.13;;;5.70;99.90;;;;;;5096775;28;20443;-77
2023/01/03 03:45:54;;;;;;;17.02;8.90;;;5.60;99.90;;;;;;5097832;28;20431;-78
2023/01/03 03:51:30;;;;;;;18.73;8.15;;;5.60;99.90;;;;;;5097178;28;20443;-77
2023/01/03 03:53:59;;;;;;;20.58;8.45;;;5.60;99.90;;;;;;5097566;28;20382;-76
2023/01/03 03:56:30;;;;;;;21.45;8.52;;;5.60;99.90;;;;;;5101671;28;20386;-77
2023/01/03 03:59:01;;;;;;;13.80;8.45;;;5.60;99.90;;;;;;5103560;28;20523;-76
2023/01/03 04:01:27;;;;;;;18.58;7.93;;;5.50;99.90;;;;;;5100917;28;20415;-76
2023/01/03 04:03:57;;;;;;;16.55;8.10;;;5.50;99.90;;;;;;5085218;28;20755;-77
2023/01/03 04:06:29;;;;;;;18.40;8.40;;;5.50;99.90;;;;;;5099810;28;20397;-77
2023/01/03 04:08:57;;;;;;;18.25;8.20;;;5.50;99.90;;;;;;5100778;28;20451;-75
2023/01/03 04:11:22;;;;;;;12.77;7.32;;;5.40;99.90;;;;;;5101951;28;20377;-76
2023/01/03 04:13:48;;;;;;;15.90;8.37;;;5.40;99.90;;;;;;5102706;28;20382;-76
2023/01/03 04:16:14;;;;;;;16.93;8.43;;;5.40;99.90;;;;;;5077980;28;20938;-76
2023/01/03 04:18:39;;;;;;;28.67;9.80;;;5.30;99.90;;;;;;5093693;28;20451;-74
2023/01/03 04:21:05;;;;;;;14.60;8.53;;;5.40;99.90;;;;;;5092032;28;20866;-77
2023/01/03 04:23:31;;;;;;;16.70;8.97;;;5.20;99.90;;;;;;5091772;28;20804;-76
2023/01/03 04:25:56;;;;;;;18.65;9.00;;;5.10;99.90;;;;;;5091651;28;20370;-76
2023/01/03 04:28:22;;;;;;;19.38;9.07;;;5.20;99.90;;;;;;5092178;28;20386;-77
2023/01/03 04:30:47;;;;;;;20.52;10.10;;;5.20;99.90;;;;;;5073441;28;20382;-75
2023/01/03 04:33:13;;;;;;;19.88;10.70;;;5.10;99.90;;;;;;5096278;28;20378;-77
2023/01/03 04:35:38;;;;;;;24.95;10.30;;;5.10;99.90;;;;;;5078649;28;20400;-76
2023/01/03 04:38:04;;;;;;;21.45;10.25;;;5.00;99.90;;;;;;5095975;28;20377;-75
2023/01/03 04:40:32;;;;;;;19.33;10.02;;;4.90;99.90;;;;;;5096678;28;20419;-77
2023/01/03 04:45:42;;;;;;;20.17;10.55;;;4.90;99.90;;;;;;5100574;28;20384;-77
2023/01/03 04:48:07;;;;;;;19.70;10.23;;;4.90;99.90;;;;;;5095490;28;20367;-77
2023/01/03 04:50:33;;;;;;;20.13;10.07;;;4.80;99.90;;;;;;5095750;28;20377;-75
2023/01/03 04:52:59;;;;;;;27.23;11.73;;;4.80;99.90;;;;;;5095236;28;20374;-76
2023/01/03 04:55:25;;;;;;;17.30;11.10;;;4.80;99.90;;;;;;5095164;28;20456;-76
2023/01/03 04:57:51;;;;;;;28.55;11.82;;;4.80;99.90;;;;;;5080099;28;20390;-74
2023/01/03 05:00:17;;;;;;;22.33;12.10;;;4.70;99.90;;;;;;5104242;28;20378;-75
2023/01/03 05:02:42;;;;;;;24.80;12.27;;;4.80;99.90;;;;;;5100861;28;20455;-76
2023/01/03 05:05:08;;;;;;;22.50;11.85;;;4.80;99.90;;;;;;5103331;28;20405;-76
2023/01/03 05:07:34;;;;;;;33.17;11.70;;;4.80;99.90;;;;;;5112343;28;20826;-76
2023/01/03 05:09:59;;;;;;;22.90;11.70;;;4.90;99.90;;;;;;5105551;28;20393;-76
2023/01/03 05:12:26;;;;;;;23.90;12.50;;;4.90;99.90;;;;;;5097736;28;20382;-76
2023/01/03 05:14:51;;;;;;;25.30;12.20;;;4.80;99.90;;;;;;5077155;28;20507;-76
2023/01/03 05:17:19;;;;;;;23.60;11.67;;;4.80;99.90;;;;;;5096311;28;20402;-77
2023/01/03 05:27:59;;;;;;;20.15;11.48;;;5.00;99.90;;;;;;5107550;28;20500;-76
2023/01/03 05:30:25;;;;;;;23.15;11.95;;;5.10;99.90;;;;;;5095106;28;20379;-76
2023/01/03 05:32:51;;;;;;;26.05;11.50;;;5.20;99.90;;;;;;5113545;28;20390;-74
2023/01/03 05:35:17;;;;;;;22.85;11.32;;;5.20;99.90;;;;;;5102452;28;20728;-77
2023/01/03 05:37:42;;;;;;;22.42;11.00;;;5.20;99.90;;;;;;5105186;28;20413;-78
2023/01/03 05:40:08;;;;;;;23.48;11.00;;;5.20;99.90;;;;;;5088368;28;20382;-77
2023/01/03 05:42:34;;;;;;;23.05;11.07;;;5.20;99.90;;;;;;5104559;28;20382;-76
2023/01/03 05:45:00;;;;;;;20.87;10.17;;;5.10;99.90;;;;;;5086634;28;20417;-76
2023/01/03 05:47:25;;;;;;;26.13;11.03;;;5.00;99.90;;;;;;5103033;28;20389;-78
2023/01/03 05:49:51;;;;;;;21.90;10.27;;;5.00;99.90;;;;;;5101077;28;20370;-76
2023/01/03 05:52:16;;;;;;;18.70;10.67;;;5.00;99.90;;;;;;5096780;28;20483;-78
2023/01/03 05:54:42;;;;;;;25.37;11.23;;;5.00;99.90;;;;;;5096704;28;20374;-75
2023/01/03 05:57:07;;;;;;;22.70;11.10;;;5.00;99.90;;;;;;5099468;28;20393;-76
2023/01/03 05:59:33;;;;;;;19.80;10.60;;;5.00;99.90;;;;;;5104890;28;20473;-77
2023/01/03 06:01:58;;;;;;;21.48;10.50;;;5.00;99.90;;;;;;5092301;28;20408;-77
2023/01/03 06:04:24;;;;;;;21.43;11.50;;;4.90;99.90;;;;;;5078434;28;20410;-76
2023/01/03 06:06:50;;;;;;;23.08;11.27;;;4.90;99.90;;;;;;5093607;28;20386;-77
2023/01/03 06:09:15;;;;;;;23.13;11.07;;;4.90;99.90;;;;;;5078298;28;20412;-77
2023/01/03 06:11:41;;;;;;;19.50;10.90;;;4.90;99.90;;;;;;5097844;28;20381;-77
2023/01/03 06:14:07;;;;;;;20.02;11.07;;;4.90;99.90;;;;;;5079190;28;20870;-74
2023/01/03 06:19:16;;;;;;;31.73;11.93;;;4.90;99.90;;;;;;5075960;28;20427;-77
2023/01/03 06:21:42;;;;;;;22.17;11.27;;;4.90;99.90;;;;;;5077056;28;20388;-76
2023/01/03 06:24:08;;;;;;;22.50;11.53;;;4.90;99.90;;;;;;5081386;28;20446;-75
2023/01/03 06:26:34;;;;;;;17.83;10.60;;;5.00;99.90;;;;;;5094784;28;20390;-76
2023/01/03 06:29:00;;;;;;;20.65;11.55;;;5.10;99.90;;;;;;5100877;28;20397;-76
2023/01/03 06:31:26;;;;;;;23.00;11.55;;;5.20;99.90;;;;;;5104228;28;20377;-75
2023/01/03 06:33:52;;;;;;;25.27;12.00;;;5.30;99.90;;;;;;5098912;28;20439;-76
2023/01/03 06:36:19;;;;;;;26.35;11.65;;;5.40;99.90;;;;;;5078360;28;20841;-73
2023/01/03 06:38:45;;;;;;;22.40;11.77;;;5.60;99.90;;;;;;5056648;28;20406;-78
2023/01/03 06:41:12;;;;;;;21.07;10.30;;;5.70;99.90;;;;;;5093444;28;20463;-78
2023/01/03 06:43:37;;;;;;;20.87;11.07;;;5.80;99.90;;;;;;5092941;28;20401;-76
2023/01/03 06:54:23;;;;;;;21.17;9.70;;;6.20;99.90;;;;;;5082014;28;20395;-76
2023/01/03 06:56:50;;;;;;;16.38;9.93;;;6.20;99.90;;;;;;5072314;28;20446;-77
2023/01/03 06:59:17;;;;;;;23.17;10.65;;;6.20;99.90;;;;;;5073599;28;20434;-76
2023/01/03 07:01:43;;;;;;;19.13;10.70;;;6.30;99.90;;;;;;5092391;28;20417;-76
2023/01/03 07:04:10;;;;;;;23.25;9.65;;;6.30;99.90;;;;;;5092428;28;20786;-76
2023/01/03 07:06:35;;;;;;;22.80;10.20;;;6.30;99.90;;;;;;5094235;28;20417;-76
2023/01/03 07:09:01;;;;;;;24.20;11.77;;;6.30;99.90;;;;;;5097382;28;20711;-77
2023/01/03 07:11:27;;;;;;;20.65;10.57;;;6.40;99.90;;;;;;5075329;28;20411;-77
2023/01/03 07:13:58;;;;;;;17.00;9.23;;;6.40;99.90;;;;;;5071875;28;20392;-77
2023/01/03 07:16:38;;;;;;;21.43;10.30;;;6.40;99.90;;;;;;5073166;28;20414;-75
2023/01/03 07:19:06;;;;;;;25.50;10.10;;;6.50;99.90;;;;;;5075252;28;20391;-77
2023/01/03 07:21:33;;;;;;;22.88;10.52;;;6.50;99.90;;;;;;5056710;28;20386;-76
2023/01/03 07:24:00;;;;;;;13.80;9.48;;;6.50;99.90;;;;;;5072722;28;20407;-76
2023/01/03 07:26:29;;;;;;;22.48;9.40;;;6.60;99.90;;;;;;5076709;28;20390;-75
2023/01/03 07:28:55;;;;;;;14.70;9.02;;;6.60;99.90;;;;;;5081085;28;20882;-78
2023/01/03 07:31:21;;;;;;;20.88;10.75;;;6.70;99.90;;;;;;5091553;28;20444;-76
2023/01/03 07:33:46;;;;;;;18.97;10.00;;;6.60;99.90;;;;;;5096521;28;20385;-76
2023/01/03 07:36:14;;;;;;;17.47;9.93;;;6.60;99.90;;;;;;5105664;28;20411;-77
2023/01/03 07:38:41;;;;;;;19.27;9.80;;;6.50;99.90;;;;;;5078658;28;20481;-77
2023/01/03 07:41:07;;;;;;;17.40;10.13;;;6.60;99.90;;;;;;5091988;28;20421;-76
2023/01/03 07:43:38;;;;;;;22.13;11.15;;;6.60;99.90;;;;;;5090438;28;20755;-77
2023/01/03 07:46:13;;;;;;;18.80;9.23;;;6.60;99.90;;;;;;5081010;28;20407;-77
2023/01/03 07:48:39;;;;;;;22.73;9.75;;;6.70;99.90;;;;;;5073637;28;20423;-76
2023/01/03 07:51:06;;;;;;;16.90;10.50;;;6.70;99.90;;;;;;5074072;28;20390;-77
2023/01/03 07:53:33;;;;;;;21.58;10.75;;;6.70;99.90;;;;;;5096842;28;20876;-76
2023/01/03 07:56:07;;;;;;;23.38;11.80;;;6.60;99.90;;;;;;5080726;28;20484;-77
2023/01/03 07:58:33;;;;;;;24.13;12.88;;;6.50;99.90;;;;;;5096023;28;20381;-75
2023/01/03 08:01:20;;;;;;;20.98;11.95;;;6.50;99.90;;;;;;5103610;28;20386;-76
2023/01/03 08:03:46;;;;;;;20.70;12.57;;;6.50;99.90;;;;;;5097715;28;20438;-76
2023/01/03 08:06:14;;;;;;;22.90;11.65;;;6.50;99.90;;;;;;5074776;28;20458;-77
2023/01/03 08:08:40;;;;;;;22.77;12.55;;;6.60;99.90;;;;;;5097622;28;20496;-76
2023/01/03 08:13:53;;;;;;;23.05;13.07;;;6.60;99.90;;;;;;5094265;28;20432;-79
2023/01/03 08:16:19;;;;;;;23.67;12.20;;;6.70;99.90;;;;;;5101605;28;20382;-78
2023/01/03 08:18:44;;;;;;;16.23;10.17;;;6.80;99.90;;;;;;5101015;28;20389;-77
2023/01/03 08:21:12;;;;;;;24.87;12.27;;;6.90;99.90;;;;;;5099827;28;20861;-77
2023/01/03 08:23:39;;;;;;;21.08;10.63;;;7.00;99.90;;;;;;5101051;28;20496;-77
2023/01/03 08:26:13;;;;;;;19.23;10.97;;;7.10;99.90;;;;;;5101541;28;20386;-77
2023/01/03 08:28:40;;;;;;;15.18;10.02;;;7.20;99.90;;;;;;5104711;28;20541;-76
2023/01/03 08:31:11;;;;;;;18.40;10.52;;;7.40;99.90;;;;;;5109642;28;20416;-77
2023/01/03 08:33:42;;;;;;;15.65;9.80;;;7.40;99.90;;;;;;5118365;28;20378;-78
2023/01/03 08:36:09;;;;;;;20.88;10.23;;;7.50;99.90;;;;;;5110252;28;20388;-77
2023/01/03 08:38:41;;;;;;;17.48;10.75;;;7.60;99.90;;;;;;5109512;28;20385;-78
2023/01/03 08:41:09;;;;;;;12.52;9.10;;;7.80;99.90;;;;;;5107706;28;20381;-79
2023/01/03 08:43:38;;;;;;;17.67;9.98;;;7.90;94.80;;;;;;5068023;28;20429;-74
2023/01/03 08:46:06;;;;;;;17.48;9.88;;;7.90;93.30;;;;;;5075279;28;20422;-75
2023/01/03 08:48:33;;;;;;;18.98;9.20;;;8.00;93.40;;;;;;5098016;28;20404;-73
2023/01/03 08:50:59;;;;;;;19.35;9.15;;;8.10;90.60;;;;;;5086722;28;20391;-75
2023/01/03 08:53:25;;;;;;;21.95;9.60;;;8.10;89.80;;;;;;5079262;28;20403;-76
2023/01/03 08:55:50;;;;;;;16.17;9.70;;;8.10;90.70;;;;;;5079217;28;20391;-75
2023/01/03 08:58:17;;;;;;;18.45;8.85;;;8.10;91.60;;;;;;5079406;28;20371;-75
2023/01/03 09:00:42;;;;;;;16.87;9.00;;;8.10;89.60;;;;;;5092058;28;20390;-76
2023/01/03 09:03:08;;;;;;;17.10;9.13;;;8.20;89.40;;;;;;5078573;28;20397;-75
2023/01/03 09:05:34;;;;;;;13.73;8.30;;;8.30;90.00;;;;;;5082014;28;20411;-74
2023/01/03 09:07:59;;;;;;;16.13;9.57;;;8.40;86.70;;;;;;5078521;28;20462;-75
2023/01/03 09:10:25;;;;;;;15.37;8.80;;;8.50;86.20;;;;;;5078606;28;20379;-76
2023/01/03 09:12:50;;;;;;;14.77;9.00;;;8.50;84.80;;;;;;5081895;28;20413;-76
2023/01/03 09:15:16;;;;;;;13.37;8.70;;;8.60;84.60;;;;;;5085323;28;20707;-77
2023/01/03 09:17:43;;;;;;;15.80;8.97;;;8.60;83.50;;;;;;5081142;28;20768;-76
2023/01/03 09:20:10;;;;;;;16.80;9.07;;;8.70;82.60;;;;;;5080026;28;20390;-77
2023/01/03 09:22:36;;;;;;;14.20;9.52;;;8.70;82.30;;;;;;5098332;28;20439;-76
2023/01/03 09:25:02;;;;;;;15.10;8.40;;;8.80;81.20;;;;;;5100364;28;20410;-77
2023/01/03 09:27:27;;;;;;;14.88;8.70;;;8.90;79.60;;;;;;5081887;28;20465;-77
2023/01/03 09:29:53;;;;;;;17.77;9.30;;;8.90;79.40;;;;;;5100403;28;20397;-77
2023/01/03 09:32:18;;;;;;;16.33;8.82;;;9.00;78.50;;;;;;5083136;28;20386;-77
2023/01/03 09:34:44;;;;;;;13.73;7.80;;;9.20;78.10;;;;;;5102279;28;20386;-77
2023/01/03 09:37:09;;;;;;;14.07;7.50;;;9.50;72.80;;;;;;5100126;28;20402;-75
2023/01/03 09:39:35;;;;;;;13.93;6.10;;;9.60;67.90;;;;;;5097627;28;20392;-77
2023/01/03 09:44:48;;;;;;;10.85;6.10;;;9.60;65.80;;;;;;5108055;28;20459;-75
2023/01/03 09:47:24;;;;;;;8.88;6.13;;;9.60;62.90;;;;;;5099232;28;20902;-75
2023/01/03 09:49:52;;;;;;;10.05;6.22;;;9.70;64.90;;;;;;5099313;28;20390;-76
2023/01/03 10:04:45;;;;;;;12.13;5.80;;;9.50;66.90;;;;;;5060556;28;20966;-76
2023/01/03 10:07:42;;;;;;;10.52;5.32;;;9.60;67.40;;;;;;5089089;28;20763;-76
2023/01/03 10:10:40;;;;;;;12.50;6.00;;;9.50;67.00;;;;;;5039056;28;20808;-75
2023/01/03 10:13:24;;;;;;;8.40;4.90;;;9.50;67.40;;;;;;5094740;28;20390;-77
2023/01/03 10:16:06;;;;;;;9.02;5.03;;;9.50;67.70;;;;;;5094657;28;20378;-75
2023/01/03 10:18:35;;;;;;;10.43;5.43;;;9.50;67.80;;;;;;5094623;28;20398;-76
2023/01/03 10:21:08;;;;;;;8.15;4.45;;;9.40;69.50;;;;;;5097774;28;20374;-76
2023/01/03 10:23:34;;;;;;;10.13;5.00;;;9.40;70.30;;;;;;5100523;28;20454;-75
2023/01/03 10:26:00;;;;;;;8.52;4.50;;;9.50;70.80;;;;;;5104715;28;20511;-75
2023/01/03 10:28:37;;;;;;;7.87;4.30;;;9.70;69.80;;;;;;5096663;28;20418;-76
2023/01/03 10:31:40;;;;;;;9.27;4.80;;;9.80;69.20;;;;;;5076002;28;20382;-75
2023/01/03 10:34:08;;;;;;;8.87;5.20;;;9.90;67.60;;;;;;5077461;28;20382;-76
2023/01/03 10:36:34;;;;;;;8.50;5.60;;;10.00;66.60;;;;;;5096152;28;20386;-79
2023/01/03 10:39:09;;;;;;;8.45;4.20;;;10.10;66.70;;;;;;5097474;28;20535;-78
2023/01/03 10:41:46;;;;;;;7.68;4.00;;;10.30;64.50;;;;;;5099040;28;20378;-77
2023/01/03 10:44:26;;;;;;;7.20;4.40;;;10.50;60.90;;;;;;5079574;28;20398;-76
2023/01/03 10:46:54;;;;;;;7.57;4.72;;;10.60;59.80;;;;;;5103295;28;20378;-77
2023/01/03 10:49:22;;;;;;;8.48;4.60;;;10.60;60.00;;;;;;5102943;28;20457;-76
2023/01/03 10:51:56;;;;;;;8.50;4.03;;;10.60;59.70;;;;;;5101650;28;20461;-77
2023/01/03 10:54:44;;;;;;;13.48;4.03;;;10.70;58.70;;;;;;5102610;28;20377;-75
2023/01/03 10:57:42;;;;;;;11.40;3.95;;;10.80;58.80;;;;;;5106771;28;20382;-75
2023/01/03 11:00:34;;;;;;;7.57;4.18;;;10.90;56.00;;;;;;5100253;28;20743;-77
2023/01/03 11:03:14;;;;;;;8.43;4.00;;;10.90;56.20;;;;;;5100099;28;20414;-77
2023/01/03 11:05:42;;;;;;;6.43;4.40;;;11.00;55.70;;;;;;5106581;28;20398;-76
2023/01/03 11:08:33;;;;;;;6.05;3.88;;;10.90;55.70;;;;;;5106479;28;20378;-74
2023/01/03 11:11:00;;;;;;;11.50;4.70;;;10.90;56.90;;;;;;5093330;28;20370;-76
2023/01/03 11:13:41;;;;;;;12.40;4.63;;;10.90;57.00;;;;;;5093164;28;20374;-76
2023/01/03 11:16:18;;;;;;;12.52;4.70;;;10.80;58.40;;;;;;5095680;28;20409;-77
2023/01/03 11:19:04;;;;;;;9.55;4.80;;;10.80;58.60;;;;;;5095148;28;20438;-77
2023/01/03 11:21:32;;;;;;;9.70;4.93;;;10.80;58.10;;;;;;5074514;28;20461;-77
2023/01/03 11:24:33;;;;;;;9.02;4.50;;;10.80;57.30;;;;;;5093872;28;20402;-75
2023/01/03 11:27:06;;;;;;;14.07;5.30;;;10.90;58.60;;;;;;5093757;28;20394;-77
2023/01/03 11:29:34;;;;;;;10.30;4.90;;;10.80;58.30;;;;;;5093782;28;20382;-74
2023/01/03 11:32:22;;;;;;;11.77;5.03;;;10.80;59.20;;;;;;5092368;28;20423;-75
2023/01/03 11:35:02;;;;;;;8.55;4.75;;;10.80;57.50;;;;;;5093042;28;20461;-77
2023/01/03 11:37:50;;;;;;;9.68;4.50;;;10.90;56.30;;;;;;5094427;28;20374;-77
2023/01/03 11:40:44;;;;;;;11.73;3.88;;;10.80;57.30;;;;;;5096340;28;20392;-75
2023/01/03 11:43:32;;;;;;;13.27;4.20;;;10.70;58.10;;;;;;5093076;28;20386;-77
2023/01/03 11:46:05;;;;;;;6.67;3.83;;;10.60;58.20;;;;;;5081881;28;20813;-79
2023/01/03 11:48:58;;;;;;;11.50;4.07;;;10.60;59.10;;;;;;5078714;28;20517;-76
2023/01/03 11:52:00;;;;;;;10.00;3.58;;;10.60;57.80;;;;;;5098363;28;20378;-76
2023/01/03 11:55:07;;;;;;;11.82;4.00;;;10.80;58.10;;;;;;5082111;28;20394;-76
2023/01/03 11:58:01;;;;;;;9.40;3.80;;;10.90;57.90;;;;;;5065329;28;20386;-75
2023/01/03 12:00:41;;;;;;;6.38;3.00;;;11.00;56.20;;;;;;5099159;28;20370;-77
2023/01/03 12:03:28;;;;;;;8.73;2.90;;;11.20;54.60;;;;;;5096863;28;20432;-77
2023/01/03 12:06:26;;;;;;;12.47;3.30;;;11.30;53.40;;;;;;5103395;28;20485;-77
2023/01/03 12:09:17;;;;;;;3.80;2.30;;;11.30;53.10;;;;;;5103827;28;20481;-77
2023/01/03 12:12:06;;;;;;;5.60;2.20;;;11.40;50.90;;;;;;5100437;28;20389;-76
2023/01/03 12:14:39;;;;;;;7.75;2.50;;;11.60;50.80;;;;;;5099287;28;20881;-77
2023/01/03 12:17:20;;;;;;;7.72;3.30;;;11.70;48.60;;;;;;5097189;28;20390;-76
2023/01/03 12:19:56;;;;;;;7.38;2.40;;;11.70;47.80;;;;;;5098850;28;20957;-77
2023/01/03 12:22:32;;;;;;;7.97;1.80;;;11.70;45.90;;;;;;5100131;28;20395;-75
2023/01/03 12:25:29;;;;;;;5.82;1.98;;;11.80;45.50;;;;;;5097295;28;20413;-76
2023/01/03 12:28:13;;;;;;;6.85;2.40;;;11.90;44.50;;;;;;5099585;28;20374;-77
2023/01/03 12:30:45;;;;;;;9.13;2.30;;;11.90;43.90;;;;;;5099854;28;20425;-77
2023/01/03 12:33:31;;;;;;;7.35;1.70;;;11.90;43.00;;;;;;5077994;28;20394;-77
2023/01/03 12:36:02;;;;;;;4.65;1.70;;;11.90;41.80;;;;;;5097250;28;20385;-76
2023/01/03 12:38:37;;;;;;;6.68;1.80;;;11.90;42.70;;;;;;5080112;28;20398;-76
2023/01/03 12:41:33;;;;;;;14.63;2.40;;;12.00;41.80;;;;;;5081573;28;20386;-76
2023/01/03 12:44:13;;;;;;;4.22;1.65;;;12.00;39.90;;;;;;5095539;28;20449;-77
2023/01/03 12:46:48;;;;;;;8.02;2.30;;;12.10;39.10;;;;;;5093971;28;20416;-76
2023/01/03 12:49:18;;;;;;;6.90;1.90;;;11.80;39.00;;;;;;5093023;28;20371;-77
2023/01/03 12:51:44;;;;;;;4.03;1.80;;;11.60;39.40;;;;;;5075468;28;20461;-75
2023/01/03 12:54:21;;;;;;;6.00;1.40;;;11.50;39.60;;;;;;5094483;28;20894;-77
2023/01/03 12:57:24;;;;;;;7.82;1.50;;;11.30;40.00;;;;;;5098000;28;20378;-76
2023/01/03 13:00:32;;;;;;;8.60;2.90;;;11.20;40.90;;;;;;5082081;28;20385;-76
2023/01/03 13:03:00;;;;;;;6.45;1.63;;;11.10;42.70;;;;;;5098131;28;20459;-78
2023/01/03 13:05:39;;;;;;;4.78;1.50;;;11.20;42.40;;;;;;5096472;28;20751;-78
2023/01/03 13:08:07;;;;;;;3.53;1.98;;;11.10;41.00;;;;;;5097066;28;20465;-75
2023/01/03 13:10:36;;;;;;;3.73;1.53;;;11.00;41.20;;;;;;5096621;28;20439;-76
2023/01/03 13:13:03;;;;;;;8.68;1.95;;;10.90;41.70;;;;;;5102740;28;20733;-76
2023/01/03 13:15:33;;;;;;;5.35;1.50;;;11.00;42.00;;;;;;5104023;28;20396;-76
2023/01/03 13:18:30;;;;;;;2.20;1.60;;;11.00;40.30;;;;;;5103387;28;20468;-76
2023/01/03 13:20:56;;;;;;;5.85;1.48;;;11.10;39.20;;;;;;5097498;28;20387;-78
2023/01/03 13:23:41;;;;;;;8.10;2.00;;;11.20;39.00;;;;;;5079236;28;20834;-76
2023/01/03 13:26:24;;;;;;;4.50;1.33;;;11.30;38.10;;;;;;5099054;28;20731;-77
2023/01/03 13:28:51;;;;;;;5.68;1.90;;;11.30;38.80;;;;;;5106169;28;20371;-76
2023/01/03 13:31:16;;;;;;;6.63;1.80;;;11.40;38.80;;;;;;5105727;28;20386;-76
2023/01/03 13:33:54;;;;;;;6.20;1.90;;;11.50;37.40;;;;;;5100406;28;20377;-77
2023/01/03 13:36:21;;;;;;;3.10;1.27;;;11.70;36.90;;;;;;5105079;28;20388;-76
2023/01/03 13:38:47;;;;;;;6.60;1.70;;;11.90;36.70;;;;;;5104397;28;20378;-76
2023/01/03 13:41:35;;;;;;;7.53;1.70;;;11.90;35.60;;;;;;5102734;28;20381;-76
2023/01/03 13:44:28;;;;;;;5.55;1.80;;;11.90;35.40;;;;;;5097949;28;20477;-77
2023/01/03 13:46:54;;;;;;;5.57;1.70;;;11.90;36.20;;;;;;5105720;28;20394;-75
2023/01/03 13:49:25;;;;;;;7.30;1.70;;;12.00;36.10;;;;;;5110664;28;20496;-75
2023/01/03 13:51:53;;;;;;;5.53;1.83;;;11.90;36.10;;;;;;5104303;28;20397;-77
2023/01/03 13:54:19;;;;;;;5.40;1.70;;;11.80;35.80;;;;;;5098742;28;21003;-77
2023/01/03 13:56:44;;;;;;;5.77;1.90;;;11.60;36.90;;;;;;5103586;28;20390;-77
2023/01/03 13:59:28;;;;;;;6.10;1.60;;;11.60;37.10;;;;;;5103743;28;20483;-77
2023/01/03 14:02:25;;;;;;;6.60;1.60;;;11.60;36.60;;;;;;5097854;28;20405;-76
2023/01/03 14:05:01;;;;;;;4.60;1.65;;;11.60;36.60;;;;;;5095325;28;20401;-76
2023/01/03 14:07:54;;;;;;;5.40;1.80;;;11.60;36.90;;;;;;5096977;28;20376;-76
2023/01/03 14:10:45;;;;;;;5.33;1.37;;;11.40;36.60;;;;;;5094962;28;20397;-77
2023/01/03 14:13:32;;;;;;;1.83;1.20;;;11.20;36.90;;;;;;5057913;28;20386;-77